Time;durP1;ratioP1;P1;durP2;ratioP2;P2;SDS_P1;SDS_P2;PMS_P1;PMS_P2;Temp;Humidity;BMP_temperature;BMP_pressure;BME280_temperature;BME280_humidity;BME280_pressure;Samples;Min_cycle;Max_cycle;Signal;HPM_P1;HPM_P2
2022/09/02 00:01:44;;;;;;;2.13;2.00;;;25.00;51.10;;;;;;4963467;28;20445;-73
2022/09/02 00:04:17;;;;;;;1.90;1.80;;;25.00;51.20;;;;;;4974512;28;20460;-73
2022/09/02 00:06:45;;;;;;;2.90;2.43;;;25.00;51.20;;;;;;4990590;28;20466;-73
2022/09/02 00:09:13;;;;;;;2.67;2.33;;;25.00;51.80;;;;;;4976703;28;20452;-75
2022/09/02 00:11:43;;;;;;;2.40;1.83;;;25.00;51.20;;;;;;4984048;28;20452;-73
2022/09/02 00:14:20;;;;;;;2.40;2.20;;;24.90;51.20;;;;;;4990710;28;20441;-74
2022/09/02 00:16:50;;;;;;;2.17;1.80;;;25.00;51.30;;;;;;4959015;28;20815;-73
2022/09/02 00:19:21;;;;;;;2.63;1.97;;;24.90;51.30;;;;;;4973095;28;20438;-73
2022/09/02 00:21:52;;;;;;;3.00;2.10;;;24.90;51.30;;;;;;4987256;28;20786;-73
2022/09/02 00:24:19;;;;;;;2.57;2.00;;;24.90;51.30;;;;;;4994725;28;20446;-73
2022/09/02 00:26:45;;;;;;;3.47;1.90;;;24.90;51.30;;;;;;4985477;28;21072;-73
2022/09/02 00:29:13;;;;;;;3.70;2.27;;;24.90;51.30;;;;;;4976063;28;20489;-73
2022/09/02 00:31:42;;;;;;;2.50;1.80;;;24.90;51.40;;;;;;4968736;28;20433;-73
2022/09/02 00:34:09;;;;;;;2.60;1.80;;;24.80;51.30;;;;;;4994889;28;20444;-73
2022/09/02 00:36:35;;;;;;;2.20;2.00;;;24.80;51.30;;;;;;4964735;28;20537;-73
2022/09/02 00:39:03;;;;;;;2.40;2.00;;;24.80;51.40;;;;;;4955615;28;20429;-73
2022/09/02 00:41:32;;;;;;;4.70;2.10;;;24.80;51.40;;;;;;4967730;28;20429;-73
2022/09/02 00:44:04;;;;;;;4.50;2.10;;;24.80;51.40;;;;;;4993918;28;20540;-73
2022/09/02 00:46:35;;;;;;;2.73;1.60;;;24.70;51.30;;;;;;4986297;28;20422;-73
2022/09/02 00:49:09;;;;;;;3.83;2.43;;;24.70;51.40;;;;;;4987734;28;20448;-73
2022/09/02 00:51:47;;;;;;;1.93;1.80;;;24.70;51.40;;;;;;4986253;28;20465;-73
2022/09/02 00:54:15;;;;;;;2.87;2.53;;;24.70;51.40;;;;;;4955336;28;20486;-73
2022/09/02 00:56:46;;;;;;;3.50;2.30;;;24.70;51.50;;;;;;4974661;28;20428;-74
2022/09/02 00:59:22;;;;;;;2.60;2.07;;;24.70;51.50;;;;;;4979793;28;20452;-73
2022/09/02 01:01:49;;;;;;;2.97;1.90;;;24.60;51.40;;;;;;4956887;28;21242;-73
2022/09/02 01:04:17;;;;;;;2.40;2.03;;;24.60;51.50;;;;;;4994323;28;20440;-73
2022/09/02 01:06:47;;;;;;;2.37;2.17;;;24.60;51.50;;;;;;4976704;28;20464;-73
2022/09/02 01:09:15;;;;;;;4.20;2.07;;;24.60;51.50;;;;;;4960649;28;20462;-73
2022/09/02 01:11:51;;;;;;;2.53;1.83;;;24.60;51.60;;;;;;4960026;28;20448;-73
2022/09/02 01:14:19;;;;;;;2.73;2.23;;;24.60;51.70;;;;;;4977950;28;20480;-73
2022/09/02 01:16:50;;;;;;;3.40;2.17;;;24.60;51.70;;;;;;4967773;28;20476;-73
2022/09/02 01:19:32;;;;;;;2.97;2.07;;;24.50;51.60;;;;;;4989764;28;20440;-73
2022/09/02 01:22:07;;;;;;;2.60;1.80;;;24.50;51.70;;;;;;4992513;28;20819;-73
2022/09/02 01:25:11;;;;;;;2.70;1.70;;;24.50;51.70;;;;;;4944162;29;20458;-73
2022/09/02 01:27:37;;;;;;;3.67;2.07;;;24.50;51.80;;;;;;4974764;28;20488;-73
2022/09/02 01:30:05;;;;;;;2.10;1.90;;;24.40;51.70;;;;;;4974086;28;20440;-73
2022/09/02 01:32:31;;;;;;;2.73;2.27;;;24.40;51.70;;;;;;4974494;28;20517;-75
2022/09/02 01:35:00;;;;;;;2.80;1.80;;;24.50;51.80;;;;;;4958190;28;20454;-74
2022/09/02 01:37:26;;;;;;;2.50;2.00;;;24.40;51.80;;;;;;4939016;29;20446;-73
2022/09/02 01:39:53;;;;;;;3.13;2.10;;;24.40;51.80;;;;;;4976903;28;20507;-73
2022/09/02 01:42:22;;;;;;;2.30;2.10;;;24.40;51.90;;;;;;4991872;28;20433;-73
2022/09/02 01:44:54;;;;;;;3.00;2.33;;;24.40;51.90;;;;;;4966499;28;20505;-73
2022/09/02 01:47:26;;;;;;;3.30;1.80;;;24.40;52.00;;;;;;4973581;28;20446;-73
2022/09/02 01:49:52;;;;;;;2.63;1.67;;;24.40;52.00;;;;;;4982857;28;20418;-73
2022/09/02 01:52:22;;;;;;;3.40;2.40;;;24.30;51.90;;;;;;4974012;28;20998;-73
2022/09/02 01:54:48;;;;;;;1.93;1.83;;;24.30;52.00;;;;;;4965669;28;20924;-73
2022/09/02 01:57:14;;;;;;;5.50;2.07;;;24.30;52.00;;;;;;4977358;28;20908;-73
2022/09/02 01:59:46;;;;;;;3.73;2.27;;;24.30;52.10;;;;;;4970087;28;20552;-73
2022/09/02 02:02:19;;;;;;;2.10;1.90;;;24.30;52.10;;;;;;4993470;28;21074;-73
2022/09/02 02:04:52;;;;;;;2.17;2.00;;;24.20;52.00;;;;;;4987339;28;20457;-73
2022/09/02 02:07:21;;;;;;;2.77;1.77;;;24.20;52.10;;;;;;4957791;28;20551;-73
2022/09/02 02:09:48;;;;;;;2.73;2.47;;;24.20;52.10;;;;;;4981400;28;20426;-73
2022/09/02 02:12:20;;;;;;;2.20;2.00;;;24.20;52.10;;;;;;4973081;28;20509;-73
2022/09/02 02:14:49;;;;;;;2.17;1.97;;;24.20;52.60;;;;;;4957735;28;20446;-74
2022/09/02 02:17:17;;;;;;;2.43;2.10;;;24.20;52.20;;;;;;4974678;28;20437;-73
2022/09/02 02:19:48;;;;;;;1.87;1.73;;;24.20;52.20;;;;;;4961949;28;20435;-74
2022/09/02 02:22:19;;;;;;;1.90;1.80;;;24.10;52.10;;;;;;4955942;28;20407;-73
2022/09/02 02:24:49;;;;;;;1.93;1.83;;;24.10;52.10;;;;;;4955316;29;20439;-73
2022/09/02 02:27:15;;;;;;;2.63;2.10;;;24.10;52.20;;;;;;4942353;28;20498;-73
2022/09/02 02:29:43;;;;;;;2.00;1.90;;;24.10;52.20;;;;;;4983294;28;20440;-73
2022/09/02 02:32:10;;;;;;;2.17;2.03;;;24.10;52.20;;;;;;4976738;28;20925;-73
2022/09/02 02:34:37;;;;;;;2.20;2.03;;;24.10;52.20;;;;;;4975764;28;20457;-73
2022/09/02 02:37:04;;;;;;;2.03;1.83;;;24.10;52.20;;;;;;4973262;28;20756;-73
2022/09/02 02:39:30;;;;;;;2.40;2.20;;;24.10;52.30;;;;;;4978230;28;20432;-73
2022/09/02 02:42:01;;;;;;;3.93;2.43;;;24.00;52.20;;;;;;4986552;28;20445;-73
2022/09/02 02:44:28;;;;;;;2.40;1.93;;;24.00;52.30;;;;;;4974329;28;20458;-73
2022/09/02 02:46:54;;;;;;;2.30;2.10;;;24.00;52.30;;;;;;4972895;28;20476;-73
2022/09/02 02:49:25;;;;;;;3.40;1.93;;;24.00;52.30;;;;;;4984935;28;20467;-73
2022/09/02 02:51:56;;;;;;;2.53;2.10;;;24.00;52.90;;;;;;4972983;28;20437;-74
2022/09/02 02:54:22;;;;;;;1.90;1.80;;;24.00;52.40;;;;;;4953193;28;20455;-73
2022/09/02 02:56:48;;;;;;;2.37;1.93;;;24.00;52.40;;;;;;4954193;28;20437;-73
2022/09/02 02:59:16;;;;;;;2.20;2.00;;;23.90;52.30;;;;;;4966076;28;20435;-73
2022/09/02 03:01:42;;;;;;;2.03;1.83;;;23.90;52.40;;;;;;4937354;29;20786;-73
2022/09/02 03:04:08;;;;;;;2.10;1.90;;;23.90;52.40;;;;;;4982661;28;20463;-73
2022/09/02 03:06:37;;;;;;;2.20;2.00;;;23.90;52.50;;;;;;4966096;28;21011;-73
2022/09/02 03:09:06;;;;;;;4.03;2.23;;;23.90;52.50;;;;;;4959655;28;20548;-73
2022/09/02 03:11:37;;;;;;;2.50;2.30;;;23.90;52.50;;;;;;4974867;28;20864;-74
2022/09/02 03:14:03;;;;;;;3.10;1.80;;;23.90;52.50;;;;;;4955811;28;20536;-73
2022/09/02 03:16:33;;;;;;;2.20;1.80;;;23.80;52.50;;;;;;4956687;28;20454;-73
2022/09/02 03:19:01;;;;;;;2.27;2.07;;;23.80;52.50;;;;;;4971868;28;20442;-74
2022/09/02 03:21:29;;;;;;;2.37;2.00;;;23.80;52.50;;;;;;4965658;28;20444;-73
2022/09/02 03:23:58;;;;;;;2.77;2.07;;;23.80;52.50;;;;;;4985890;28;20548;-73
2022/09/02 03:26:24;;;;;;;2.30;2.10;;;23.80;52.60;;;;;;4973819;28;20441;-73
2022/09/02 03:28:59;;;;;;;3.23;2.13;;;23.80;52.60;;;;;;4963476;28;20508;-73
2022/09/02 03:31:28;;;;;;;2.47;2.27;;;23.80;52.70;;;;;;4972194;28;20471;-73
2022/09/02 03:33:55;;;;;;;2.10;2.00;;;23.80;52.70;;;;;;4974051;28;21153;-73
2022/09/02 03:36:29;;;;;;;3.07;1.97;;;23.70;52.60;;;;;;4975593;28;20449;-71
2022/09/02 03:39:00;;;;;;;2.27;2.00;;;23.70;52.70;;;;;;4972464;28;20536;-70
2022/09/02 03:41:30;;;;;;;2.10;1.80;;;23.70;52.70;;;;;;4956463;28;20720;-71
2022/09/02 03:44:00;;;;;;;2.00;1.80;;;23.70;52.70;;;;;;4984071;28;20445;-71
2022/09/02 03:46:28;;;;;;;2.90;1.93;;;23.70;52.70;;;;;;4974317;28;20440;-70
2022/09/02 03:48:57;;;;;;;3.00;2.30;;;23.70;52.80;;;;;;4973010;28;20885;-71
2022/09/02 03:51:25;;;;;;;2.77;2.20;;;23.70;52.80;;;;;;4971967;28;20424;-71
2022/09/02 03:53:51;;;;;;;2.27;2.07;;;23.60;52.70;;;;;;4972160;28;20457;-72
2022/09/02 03:56:18;;;;;;;2.73;2.10;;;23.60;52.80;;;;;;4956102;28;21042;-71
2022/09/02 03:58:47;;;;;;;2.70;2.13;;;23.60;52.80;;;;;;4961976;28;20501;-70
2022/09/02 04:01:24;;;;;;;1.97;1.73;;;23.60;52.80;;;;;;4968324;28;20452;-71
2022/09/02 04:03:51;;;;;;;2.17;1.97;;;23.60;52.80;;;;;;4975407;28;20531;-71
2022/09/02 04:06:24;;;;;;;4.10;2.20;;;23.60;52.80;;;;;;4984097;28;20616;-70
2022/09/02 04:08:53;;;;;;;2.00;1.80;;;23.60;52.90;;;;;;4955269;28;20520;-70
2022/09/02 04:11:21;;;;;;;2.30;2.10;;;23.60;52.90;;;;;;4979203;28;20413;-71
2022/09/02 04:13:52;;;;;;;2.03;1.93;;;23.60;52.90;;;;;;4974959;28;21140;-69
2022/09/02 04:23:27;;;;;;;4.23;1.93;;;23.50;53.00;;;;;;4987950;28;20469;-70
2022/09/02 04:25:54;;;;;;;2.27;1.83;;;23.50;53.10;;;;;;4990142;28;20452;-70
2022/09/02 04:28:20;;;;;;;2.40;2.07;;;23.40;53.00;;;;;;4975227;28;20962;-70
2022/09/02 04:30:48;;;;;;;2.80;1.90;;;23.40;53.10;;;;;;4978637;28;20800;-70
2022/09/02 04:33:16;;;;;;;2.73;1.70;;;23.40;53.10;;;;;;4971737;28;20719;-70
2022/09/02 04:35:48;;;;;;;2.50;1.80;;;23.40;53.20;;;;;;4971697;28;20443;-69
2022/09/02 04:38:15;;;;;;;2.60;2.40;;;23.40;53.20;;;;;;4989815;28;20433;-69
2022/09/02 04:40:44;;;;;;;2.30;2.10;;;23.40;53.30;;;;;;4990564;28;20437;-69
2022/09/02 04:43:13;;;;;;;2.37;2.17;;;23.40;53.30;;;;;;4989202;28;20449;-69
2022/09/02 04:45:42;;;;;;;3.27;2.10;;;23.40;53.30;;;;;;4955186;28;20781;-70
2022/09/02 04:48:12;;;;;;;2.47;2.10;;;23.40;53.30;;;;;;4963099;28;20451;-69
2022/09/02 04:50:42;;;;;;;2.83;2.10;;;23.30;53.20;;;;;;4939531;28;20536;-71
2022/09/02 04:53:09;;;;;;;2.20;1.87;;;23.30;53.30;;;;;;4955189;28;20473;-70
2022/09/02 04:55:41;;;;;;;2.33;2.13;;;23.30;53.40;;;;;;4972141;28;20421;-70
2022/09/02 04:58:10;;;;;;;2.83;2.40;;;23.30;53.40;;;;;;4971509;28;20450;-69
2022/09/02 05:00:42;;;;;;;2.63;2.43;;;23.30;53.40;;;;;;4956190;28;20434;-69
2022/09/02 05:03:13;;;;;;;2.40;2.17;;;23.30;53.50;;;;;;4971446;28;20465;-71
2022/09/02 05:05:41;;;;;;;3.63;2.10;;;23.30;53.50;;;;;;4973299;28;20425;-70
2022/09/02 05:08:12;;;;;;;2.23;2.03;;;23.30;53.60;;;;;;4958700;28;20891;-69
2022/09/02 05:10:39;;;;;;;2.50;2.00;;;23.30;53.60;;;;;;4955088;28;20447;-69
2022/09/02 05:13:05;;;;;;;2.80;2.13;;;23.30;53.60;;;;;;4971609;28;20462;-69
2022/09/02 05:15:32;;;;;;;1.80;1.70;;;23.30;53.60;;;;;;4968050;28;20518;-71
2022/09/02 05:17:58;;;;;;;3.07;1.93;;;23.20;53.50;;;;;;4947313;28;20489;-71
2022/09/02 05:20:26;;;;;;;3.73;2.13;;;23.20;53.60;;;;;;4975671;28;20462;-72
2022/09/02 05:23:01;;;;;;;2.60;2.07;;;23.20;53.60;;;;;;4962512;28;20419;-74
2022/09/02 05:25:27;;;;;;;3.00;2.70;;;23.20;53.60;;;;;;4955667;28;20790;-71
2022/09/02 05:28:09;;;;;;;2.23;2.03;;;23.20;53.70;;;;;;4944555;28;20870;-71
2022/09/02 05:30:42;;;;;;;2.40;2.20;;;23.20;53.70;;;;;;4947956;28;20924;-71
2022/09/02 05:33:10;;;;;;;2.50;2.30;;;23.20;53.80;;;;;;4958898;28;20489;-71
2022/09/02 05:35:43;;;;;;;2.20;1.93;;;23.20;53.80;;;;;;4974712;28;20979;-71
2022/09/02 05:38:13;;;;;;;4.70;2.30;;;23.20;53.80;;;;;;4974654;28;20461;-71
2022/09/02 05:40:42;;;;;;;2.33;2.13;;;23.10;53.70;;;;;;4955314;29;20964;-71
2022/09/02 05:43:11;;;;;;;2.73;1.90;;;23.10;53.70;;;;;;4928316;29;20470;-71
2022/09/02 05:45:38;;;;;;;2.70;2.20;;;23.10;53.80;;;;;;4969425;28;20533;-71
2022/09/02 05:49:04;;;;;;;2.30;2.10;;;23.10;53.80;;;;;;4973936;28;20505;-72
2022/09/02 05:50:51;;;;;;;3.33;2.03;;;23.10;53.80;;;;;;4973911;28;20450;-72
2022/09/02 05:53:18;;;;;;;2.47;2.00;;;23.10;53.90;;;;;;4973390;28;20470;-72
2022/09/02 05:55:47;;;;;;;4.00;2.40;;;23.10;53.90;;;;;;4958362;28;20757;-72
2022/09/02 05:58:13;;;;;;;3.90;2.20;;;23.10;54.00;;;;;;4973643;28;20914;-72
2022/09/02 06:00:44;;;;;;;2.90;2.50;;;23.10;54.10;;;;;;4971506;28;20509;-70
2022/09/02 06:03:10;;;;;;;2.50;2.30;;;23.10;54.00;;;;;;4966989;28;20469;-69
2022/09/02 06:05:39;;;;;;;3.47;2.40;;;23.00;54.00;;;;;;4957353;28;21018;-72
2022/09/02 06:08:16;;;;;;;2.30;2.10;;;23.00;54.00;;;;;;4967246;28;20451;-72
2022/09/02 06:10:43;;;;;;;2.40;2.00;;;23.00;54.00;;;;;;4954999;28;20459;-71
2022/09/02 06:13:21;;;;;;;5.73;2.23;;;23.00;54.00;;;;;;4970749;28;20907;-71
2022/09/02 06:15:51;;;;;;;2.30;2.10;;;23.00;54.10;;;;;;4939459;28;21083;-74
2022/09/02 06:18:18;;;;;;;5.00;2.43;;;23.00;54.10;;;;;;4938662;29;20490;-73
2022/09/02 06:20:49;;;;;;;2.87;2.20;;;23.00;54.10;;;;;;4954864;29;20534;-72
2022/09/02 06:23:17;;;;;;;3.30;2.10;;;23.00;54.10;;;;;;4938906;29;20442;-73
2022/09/02 06:25:47;;;;;;;3.07;2.10;;;23.00;54.20;;;;;;4954593;29;20427;-74
2022/09/02 06:28:15;;;;;;;2.73;2.20;;;23.00;54.20;;;;;;4954056;29;20835;-73
2022/09/02 06:30:45;;;;;;;5.00;2.13;;;23.00;54.20;;;;;;4954518;29;20786;-73
2022/09/02 06:33:14;;;;;;;3.30;2.40;;;23.00;54.20;;;;;;4954798;28;20526;-74
2022/09/02 06:35:45;;;;;;;3.40;2.07;;;23.00;54.20;;;;;;4948020;29;20427;-74
2022/09/02 06:38:14;;;;;;;2.30;2.10;;;23.00;54.30;;;;;;4938642;29;20425;-75
2022/09/02 06:40:54;;;;;;;3.60;2.27;;;23.00;54.30;;;;;;4954112;29;20878;-75
2022/09/02 06:43:33;;;;;;;4.50;2.30;;;22.90;54.20;;;;;;4953130;28;20434;-72
2022/09/02 06:46:32;;;;;;;2.30;1.90;;;22.90;54.20;;;;;;4953551;29;20952;-73
2022/09/02 06:49:07;;;;;;;4.17;2.17;;;22.90;54.40;;;;;;4937657;29;20438;-73
2022/09/02 06:51:41;;;;;;;4.23;2.20;;;22.90;54.40;;;;;;4937629;28;20443;-75
2022/09/02 06:54:11;;;;;;;2.50;1.90;;;22.90;54.40;;;;;;4969659;28;20593;-69
2022/09/02 06:56:38;;;;;;;2.10;1.90;;;22.90;54.50;;;;;;4937745;29;20412;-71
2022/09/02 06:59:08;;;;;;;2.83;1.97;;;22.90;54.50;;;;;;4937170;29;20465;-71
2022/09/02 07:01:42;;;;;;;2.97;2.00;;;22.90;54.50;;;;;;4953230;29;20506;-71
2022/09/02 07:07:00;;;;;;;3.20;2.00;;;22.90;54.70;;;;;;4985588;28;20930;-69
2022/09/02 07:09:30;;;;;;;4.10;2.10;;;22.90;54.80;;;;;;4938377;29;20454;-70
2022/09/02 07:12:02;;;;;;;2.07;1.80;;;22.90;54.80;;;;;;4953380;29;20832;-71
2022/09/02 07:14:35;;;;;;;2.53;2.33;;;22.90;54.80;;;;;;4942189;28;20490;-71
2022/09/02 07:17:01;;;;;;;2.33;2.13;;;22.90;54.70;;;;;;4960634;28;20441;-71
2022/09/02 07:19:33;;;;;;;2.60;2.23;;;22.90;54.70;;;;;;4953292;29;20420;-71
2022/09/02 07:22:08;;;;;;;2.10;1.90;;;22.90;54.70;;;;;;4953043;29;20925;-71
2022/09/02 07:24:42;;;;;;;3.03;2.10;;;22.90;54.70;;;;;;4952760;29;20539;-71
2022/09/02 07:27:10;;;;;;;3.63;2.40;;;22.90;54.70;;;;;;4965476;28;20466;-71
2022/09/02 07:29:37;;;;;;;2.60;2.40;;;22.90;54.70;;;;;;4952520;28;20452;-71
2022/09/02 07:32:04;;;;;;;2.27;2.10;;;22.90;54.70;;;;;;4955145;28;20972;-71
2022/09/02 07:34:32;;;;;;;3.10;2.30;;;22.90;54.70;;;;;;4956103;28;21005;-71
2022/09/02 07:37:00;;;;;;;2.53;1.93;;;22.90;54.60;;;;;;4975483;28;20527;-71
2022/09/02 07:39:31;;;;;;;2.70;1.90;;;22.90;54.60;;;;;;4959620;28;20418;-71
2022/09/02 07:41:58;;;;;;;2.13;1.97;;;23.00;54.70;;;;;;4991506;28;20492;-71
2022/09/02 07:44:27;;;;;;;2.87;2.23;;;23.00;54.70;;;;;;4928351;29;20503;-71
2022/09/02 07:46:55;;;;;;;3.00;2.53;;;23.00;54.60;;;;;;4936824;29;20473;-71
2022/09/02 07:49:26;;;;;;;2.90;2.67;;;23.00;54.60;;;;;;4937186;29;20465;-71
2022/09/02 07:51:57;;;;;;;3.40;2.60;;;23.00;54.60;;;;;;4952356;29;20442;-72
2022/09/02 07:54:24;;;;;;;3.70;2.63;;;23.00;54.50;;;;;;4953787;28;20486;-71
2022/09/02 07:56:55;;;;;;;2.47;2.27;;;23.00;54.50;;;;;;4936729;29;20419;-72
2022/09/02 07:59:21;;;;;;;2.30;2.20;;;23.00;54.50;;;;;;4920808;29;20442;-71
2022/09/02 08:01:54;;;;;;;3.90;2.33;;;23.00;54.60;;;;;;4970584;28;20472;-72
2022/09/02 08:04:27;;;;;;;2.60;2.40;;;23.00;54.50;;;;;;4955375;28;20540;-71
2022/09/02 08:06:53;;;;;;;2.50;2.30;;;23.00;55.10;;;;;;4949808;28;20498;-71
2022/09/02 08:09:23;;;;;;;2.87;2.67;;;23.00;54.50;;;;;;4957460;28;20429;-71
2022/09/02 08:11:50;;;;;;;2.30;2.10;;;23.00;54.50;;;;;;4954854;28;20804;-71
2022/09/02 08:14:23;;;;;;;2.37;2.17;;;23.10;54.60;;;;;;4947237;29;20851;-71
2022/09/02 08:16:52;;;;;;;2.43;2.23;;;23.10;54.60;;;;;;4966003;28;20449;-72
2022/09/02 08:19:22;;;;;;;2.33;2.13;;;23.10;54.60;;;;;;4958669;28;20446;-71
2022/09/02 08:21:51;;;;;;;2.40;2.20;;;23.10;54.50;;;;;;4956210;28;20419;-71
2022/09/02 08:24:19;;;;;;;2.47;2.27;;;23.10;54.50;;;;;;4952595;29;20442;-71
2022/09/02 08:26:50;;;;;;;2.23;2.03;;;23.10;54.50;;;;;;4963757;28;20453;-72
2022/09/02 08:29:18;;;;;;;2.43;2.23;;;23.10;54.50;;;;;;4955648;28;20568;-71
2022/09/02 08:31:44;;;;;;;3.23;2.63;;;23.10;54.50;;;;;;4971810;28;20509;-71
2022/09/02 08:34:13;;;;;;;2.63;2.40;;;23.10;54.50;;;;;;4970399;28;20853;-72
2022/09/02 08:36:46;;;;;;;2.60;2.40;;;23.10;54.40;;;;;;4954973;28;20440;-71
2022/09/02 08:39:12;;;;;;;2.70;2.50;;;23.20;54.50;;;;;;4939812;28;20439;-72
2022/09/02 08:41:54;;;;;;;2.97;2.67;;;23.20;54.50;;;;;;4974430;28;20445;-72
2022/09/02 08:44:27;;;;;;;2.83;2.30;;;23.20;55.10;;;;;;4965219;28;21051;-72
2022/09/02 08:46:59;;;;;;;2.00;1.90;;;23.20;54.50;;;;;;4939591;29;20434;-72
2022/09/02 08:49:30;;;;;;;2.80;2.60;;;23.20;54.50;;;;;;4973201;28;20795;-72
2022/09/02 08:52:04;;;;;;;2.73;2.53;;;23.20;54.50;;;;;;4973887;28;20702;-71
2022/09/02 08:54:55;;;;;;;2.90;2.40;;;23.30;54.50;;;;;;4975965;28;20996;-72
2022/09/02 08:57:25;;;;;;;2.57;2.20;;;23.30;54.50;;;;;;4958864;28;20453;-71
2022/09/02 08:59:54;;;;;;;3.33;2.37;;;23.30;54.50;;;;;;4970754;28;20509;-71
2022/09/02 09:02:55;;;;;;;2.40;2.20;;;23.30;55.00;;;;;;4955590;29;20968;-71
2022/09/02 09:05:54;;;;;;;2.33;2.13;;;23.30;54.40;;;;;;4955485;29;20430;-72
2022/09/02 09:08:32;;;;;;;3.00;2.70;;;23.30;54.40;;;;;;4983923;28;20477;-72
2022/09/02 09:11:10;;;;;;;2.50;2.30;;;23.40;54.50;;;;;;4956288;29;20491;-72
2022/09/02 09:14:15;;;;;;;2.73;2.20;;;23.40;54.40;;;;;;4956106;29;20861;-72
2022/09/02 09:16:53;;;;;;;2.70;2.50;;;23.40;54.40;;;;;;4955320;29;20418;-71
2022/09/02 09:19:50;;;;;;;2.40;2.20;;;23.40;54.40;;;;;;4958416;28;21059;-71
2022/09/02 09:22:25;;;;;;;2.77;2.57;;;23.50;54.40;;;;;;4951204;28;20446;-71
2022/09/02 09:24:51;;;;;;;2.97;2.60;;;23.50;54.40;;;;;;4971065;28;20529;-71
2022/09/02 09:27:21;;;;;;;2.77;2.57;;;23.50;54.40;;;;;;4938924;29;21039;-71
2022/09/02 09:29:51;;;;;;;2.33;2.13;;;23.60;54.40;;;;;;4960660;28;20932;-71
2022/09/02 09:32:27;;;;;;;3.23;2.90;;;23.50;54.30;;;;;;4952815;28;20956;-71
2022/09/02 09:35:06;;;;;;;3.20;2.50;;;23.60;54.30;;;;;;4964945;28;20509;-71
2022/09/02 09:37:38;;;;;;;2.47;2.23;;;23.60;54.30;;;;;;4954564;29;20474;-71
2022/09/02 09:40:29;;;;;;;2.70;2.50;;;23.60;54.20;;;;;;4972050;28;20457;-71
2022/09/02 09:43:11;;;;;;;3.30;2.10;;;23.70;54.20;;;;;;4958836;28;20481;-71
2022/09/02 09:45:50;;;;;;;3.27;2.63;;;23.70;54.20;;;;;;4964881;28;20445;-71
2022/09/02 09:48:16;;;;;;;2.37;2.17;;;23.70;54.20;;;;;;4955712;28;20512;-71
2022/09/02 09:51:06;;;;;;;2.43;2.23;;;23.70;54.20;;;;;;4972621;28;20521;-73
2022/09/02 09:53:34;;;;;;;3.27;2.37;;;23.80;54.20;;;;;;4967624;28;20485;-70
2022/09/02 09:56:04;;;;;;;2.90;2.60;;;23.80;54.10;;;;;;4973556;28;20421;-72
2022/09/02 09:58:39;;;;;;;3.93;2.50;;;23.80;54.10;;;;;;4969379;28;20465;-72
2022/09/02 10:01:24;;;;;;;2.57;2.37;;;23.90;54.00;;;;;;4954135;29;20405;-71
2022/09/02 10:04:00;;;;;;;2.87;2.40;;;23.90;53.90;;;;;;4963270;28;20443;-72
2022/09/02 10:06:29;;;;;;;2.90;2.60;;;23.90;53.90;;;;;;4954273;29;20415;-70
2022/09/02 10:08:59;;;;;;;2.90;2.37;;;24.00;53.90;;;;;;4955328;28;20886;-73
2022/09/02 10:11:29;;;;;;;2.30;2.20;;;24.00;53.90;;;;;;4970262;28;20467;-73
2022/09/02 10:14:09;;;;;;;2.70;2.50;;;24.00;53.80;;;;;;4959406;28;20513;-73
2022/09/02 10:16:41;;;;;;;2.50;2.30;;;24.10;53.80;;;;;;4955569;28;20434;-71
2022/09/02 10:19:25;;;;;;;3.13;2.60;;;24.10;53.70;;;;;;4955199;28;20779;-72
2022/09/02 10:22:11;;;;;;;2.50;2.30;;;24.10;53.70;;;;;;4955072;28;20426;-71
2022/09/02 10:24:37;;;;;;;2.33;2.13;;;24.20;53.60;;;;;;4969151;28;20454;-74
2022/09/02 10:27:07;;;;;;;2.90;2.43;;;24.20;53.60;;;;;;4972558;28;20517;-74
2022/09/02 10:29:50;;;;;;;2.70;2.50;;;24.20;53.50;;;;;;4969834;28;20468;-74
2022/09/02 10:32:35;;;;;;;3.53;2.43;;;24.20;53.40;;;;;;4960733;28;21018;-74
2022/09/02 10:35:35;;;;;;;2.73;2.53;;;24.30;53.40;;;;;;4955512;28;20427;-74
2022/09/02 10:38:23;;;;;;;2.80;2.60;;;24.30;53.20;;;;;;4950450;29;20447;-74
2022/09/02 10:41:19;;;;;;;2.50;2.30;;;24.40;53.20;;;;;;4947354;29;20881;-74
2022/09/02 10:43:53;;;;;;;2.80;2.60;;;24.40;53.70;;;;;;4961920;28;20458;-74
2022/09/02 10:46:23;;;;;;;2.30;2.20;;;24.40;53.10;;;;;;4957412;28;20426;-74
2022/09/02 10:48:56;;;;;;;2.40;2.10;;;24.50;53.00;;;;;;4959019;28;20455;-73
2022/09/02 10:51:39;;;;;;;2.17;2.00;;;24.50;52.90;;;;;;4977678;28;20447;-73
2022/09/02 10:54:29;;;;;;;2.20;2.10;;;24.50;52.80;;;;;;4948953;28;20828;-72
2022/09/02 10:57:10;;;;;;;4.83;2.37;;;24.60;52.80;;;;;;4966515;28;20469;-72
2022/09/02 10:59:47;;;;;;;2.80;2.60;;;24.60;52.80;;;;;;4953751;28;20431;-72
2022/09/02 11:02:25;;;;;;;3.00;2.80;;;24.60;52.70;;;;;;4955266;28;20466;-72
2022/09/02 11:05:08;;;;;;;2.77;2.20;;;24.70;52.60;;;;;;4969517;28;20454;-72
2022/09/02 11:08:01;;;;;;;2.80;2.50;;;24.70;52.30;;;;;;4972638;28;20568;-72
2022/09/02 11:10:34;;;;;;;2.70;2.50;;;24.70;52.30;;;;;;4954194;28;20435;-73
2022/09/02 11:13:09;;;;;;;2.73;2.23;;;24.70;52.40;;;;;;4955471;28;20449;-73
2022/09/02 11:15:46;;;;;;;3.47;3.00;;;24.70;52.30;;;;;;4945885;29;20471;-73
2022/09/02 11:18:46;;;;;;;2.30;2.10;;;24.80;52.30;;;;;;4964940;28;20445;-73
2022/09/02 11:21:18;;;;;;;2.70;2.50;;;24.80;52.20;;;;;;4937225;28;20503;-73
2022/09/02 11:24:00;;;;;;;2.30;2.20;;;24.80;52.00;;;;;;4960106;28;20469;-73
2022/09/02 11:26:39;;;;;;;2.50;2.20;;;24.90;52.00;;;;;;4951730;28;20565;-73
2022/09/02 11:29:16;;;;;;;2.67;2.47;;;24.90;52.00;;;;;;4953674;28;20828;-73
2022/09/02 11:31:43;;;;;;;2.70;2.50;;;24.90;51.90;;;;;;4949184;29;20458;-69
2022/09/02 11:34:35;;;;;;;2.70;2.17;;;24.90;51.80;;;;;;4939041;28;20466;-71
2022/09/02 11:37:11;;;;;;;2.47;2.27;;;24.90;51.60;;;;;;4945003;29;20933;-71
2022/09/02 11:39:46;;;;;;;2.67;2.47;;;24.90;51.60;;;;;;4949976;28;20946;-71
2022/09/02 11:42:29;;;;;;;2.70;2.50;;;25.00;51.70;;;;;;4951689;29;20442;-71
2022/09/02 11:45:10;;;;;;;2.90;2.63;;;25.00;51.70;;;;;;4958246;28;20451;-71
2022/09/02 11:47:41;;;;;;;2.30;2.10;;;25.00;51.50;;;;;;4975029;28;20842;-72
2022/09/02 11:50:42;;;;;;;2.10;2.00;;;25.00;51.40;;;;;;4952677;29;20457;-71
2022/09/02 11:53:39;;;;;;;2.07;1.97;;;25.10;51.30;;;;;;4921120;29;20997;-72
2022/09/02 11:56:11;;;;;;;2.27;2.10;;;25.10;51.50;;;;;;4948412;29;20434;-71
2022/09/02 11:58:37;;;;;;;3.63;2.93;;;25.10;51.50;;;;;;4953795;29;20443;-71
2022/09/02 12:01:21;;;;;;;2.50;2.30;;;25.10;51.40;;;;;;4953530;28;20415;-72
2022/09/02 12:04:17;;;;;;;3.30;2.20;;;25.10;51.30;;;;;;4952202;29;20458;-71
2022/09/02 12:07:11;;;;;;;2.13;2.03;;;25.20;51.40;;;;;;4952152;29;20458;-71
2022/09/02 12:09:54;;;;;;;2.43;2.17;;;25.20;51.30;;;;;;4959717;28;21014;-72
2022/09/02 12:12:38;;;;;;;2.37;2.17;;;25.20;51.00;;;;;;4971406;28;20459;-72
2022/09/02 12:15:15;;;;;;;2.47;2.27;;;25.20;51.00;;;;;;4958063;28;20426;-72
2022/09/02 12:17:52;;;;;;;2.63;2.23;;;25.20;51.10;;;;;;4983783;28;20525;-73
2022/09/02 12:20:41;;;;;;;2.43;2.23;;;25.30;51.00;;;;;;4964788;28;20422;-73
2022/09/02 12:23:09;;;;;;;2.30;2.10;;;25.30;50.80;;;;;;4985285;28;20505;-71
2022/09/02 12:25:47;;;;;;;2.40;2.20;;;25.30;50.50;;;;;;4978592;28;20539;-71
2022/09/02 12:28:25;;;;;;;3.20;2.10;;;25.40;50.50;;;;;;4940046;29;20934;-71
2022/09/02 12:30:55;;;;;;;2.10;2.00;;;25.40;50.50;;;;;;4973969;28;20473;-72
2022/09/02 12:33:32;;;;;;;2.70;2.50;;;25.40;50.60;;;;;;4975974;28;20559;-71
2022/09/02 12:36:03;;;;;;;2.77;2.40;;;25.40;50.60;;;;;;4989189;28;20421;-71
2022/09/02 12:38:38;;;;;;;2.67;2.00;;;25.50;50.60;;;;;;4939528;29;20914;-72
2022/09/02 12:41:04;;;;;;;7.03;2.33;;;25.50;50.60;;;;;;4971305;28;20429;-72
2022/09/02 12:43:48;;;;;;;3.00;2.17;;;25.50;50.50;;;;;;4962725;28;20445;-71
2022/09/02 12:46:27;;;;;;;2.93;2.33;;;25.60;50.30;;;;;;4923903;29;20466;-70
2022/09/02 12:49:30;;;;;;;2.50;2.17;;;25.60;50.20;;;;;;4963278;28;20541;-72
2022/09/02 12:52:02;;;;;;;2.23;2.10;;;25.60;50.30;;;;;;4977665;28;20445;-72
2022/09/02 12:54:38;;;;;;;1.83;1.73;;;25.60;50.30;;;;;;4990603;28;20533;-73
2022/09/02 12:57:08;;;;;;;2.40;2.20;;;25.70;50.30;;;;;;4978090;28;20427;-72
2022/09/02 12:59:39;;;;;;;2.13;2.03;;;25.70;50.30;;;;;;4965233;28;20447;-72
2022/09/02 13:02:45;;;;;;;2.20;2.10;;;25.70;50.30;;;;;;4955536;29;20394;-72
2022/09/02 13:05:23;;;;;;;2.10;2.00;;;25.80;50.30;;;;;;4938231;28;20457;-72
2022/09/02 13:08:16;;;;;;;2.40;2.20;;;25.80;50.20;;;;;;4967272;28;20461;-72
2022/09/02 13:11:07;;;;;;;2.33;1.80;;;25.80;50.10;;;;;;4955457;28;20912;-72
2022/09/02 13:14:00;;;;;;;3.23;2.10;;;25.90;50.10;;;;;;4959385;28;20485;-72
2022/09/02 13:16:45;;;;;;;2.63;2.30;;;25.90;50.10;;;;;;4975846;28;20442;-73
2022/09/02 13:19:30;;;;;;;2.20;2.10;;;25.90;50.10;;;;;;4983078;28;21099;-74
2022/09/02 13:22:15;;;;;;;2.83;2.10;;;25.90;50.10;;;;;;4977544;28;20410;-73
2022/09/02 13:25:09;;;;;;;2.33;2.13;;;26.00;49.90;;;;;;4982413;28;20482;-72
2022/09/02 13:28:03;;;;;;;2.60;2.40;;;26.00;49.70;;;;;;4973796;28;20460;-73
2022/09/02 13:30:48;;;;;;;2.30;2.13;;;26.00;49.50;;;;;;4976192;28;20431;-72